Las Torres de Cotillas, Spain
Current Conditions -  °F | °C
As of 11:00 PM on Wednesday 22 Oct 2014 (Local Time) from LELC Reporting Station
Few Clouds Few Clouds  
Wind Chill: 19°   Ceiling: Unl
Heat Index: 19°   Visibility: 6mi
Dew Point: 16°   Wind: 5mph
Humidity: 83%   Direction: 330°NNW
Pressure: 30.24"   Gusts: NA
Location:  38.03°N, 1.24°W
Report Text: LELC 222100Z 33004KT 9999 FEW020 19/16 Q1024 NOSIG
Loading
Personal Weather Stations






























Interactive Weather Map
Tropical Storm Tracking
New forecast layout! Learn more

10-Day Weather Forecast

Advertisements
Track Severe Weather on mobile